createdAt,value
2022-10-04T00:02:06.028Z,30.24
2022-10-04T00:04:32.588Z,30.26
2022-10-04T00:06:58.934Z,30.28
2022-10-04T00:09:25.350Z,30.28
2022-10-04T00:11:51.738Z,30.28
2022-10-04T00:14:18.070Z,30.26
2022-10-04T00:16:44.404Z,30.18
2022-10-04T00:19:10.757Z,30.23
2022-10-04T00:21:37.106Z,30.26
2022-10-04T00:24:03.445Z,30.74
2022-10-04T00:26:29.790Z,30.60
2022-10-04T00:28:56.145Z,30.39
2022-10-04T00:31:22.569Z,30.28
2022-10-04T00:33:48.983Z,30.30
2022-10-04T00:36:15.328Z,30.20
2022-10-04T00:38:41.659Z,30.19
2022-10-04T00:41:08.166Z,30.23
2022-10-04T00:43:34.490Z,30.27
2022-10-04T00:46:00.863Z,30.16
2022-10-04T00:48:31.229Z,30.18
2022-10-04T00:50:58.033Z,30.21
2022-10-04T00:53:24.359Z,30.15
2022-10-04T00:55:50.736Z,30.16
2022-10-04T00:58:17.092Z,30.75
2022-10-04T01:00:43.479Z,30.46
2022-10-04T01:03:10.031Z,30.37
2022-10-04T01:05:36.356Z,30.30
2022-10-04T01:08:02.705Z,30.21
2022-10-04T01:10:29.073Z,30.22
2022-10-04T01:12:55.424Z,30.26
2022-10-04T01:15:21.759Z,30.22
2022-10-04T01:17:48.128Z,30.25
2022-10-04T01:20:14.492Z,30.18
2022-10-04T01:22:40.821Z,30.29
2022-10-04T01:25:07.299Z,30.21
2022-10-04T01:27:33.670Z,30.25
2022-10-04T01:30:00.015Z,30.98
2022-10-04T01:32:26.393Z,30.47
2022-10-04T01:34:52.749Z,30.37
2022-10-04T01:37:19.116Z,30.27
2022-10-04T01:39:45.602Z,30.21
2022-10-04T01:42:11.935Z,30.27
2022-10-04T01:44:38.281Z,30.28
2022-10-04T01:47:04.642Z,30.25
2022-10-04T01:49:30.970Z,30.25
2022-10-04T01:51:57.356Z,30.25
2022-10-04T01:54:23.815Z,30.27
2022-10-04T01:56:50.149Z,30.24
2022-10-04T01:59:16.503Z,30.56
2022-10-04T02:01:43.211Z,30.84
2022-10-04T02:04:09.884Z,30.42
2022-10-04T02:06:36.230Z,30.38
2022-10-04T02:09:02.597Z,30.31
2022-10-04T02:11:28.923Z,30.29
2022-10-04T02:13:55.270Z,30.28
2022-10-04T02:16:21.692Z,30.34
2022-10-04T02:18:48.069Z,30.31
2022-10-04T02:21:14.401Z,30.20
2022-10-04T02:23:40.772Z,30.26
2022-10-04T02:26:07.098Z,30.26
2022-10-04T02:28:33.503Z,30.28
2022-10-04T02:30:59.976Z,30.75
2022-10-04T02:33:26.307Z,30.69
2022-10-04T02:35:52.639Z,30.46
2022-10-04T02:38:19.126Z,30.33
2022-10-04T02:40:45.453Z,30.32
2022-10-04T02:43:11.800Z,30.33
2022-10-04T02:45:38.270Z,30.33
2022-10-04T02:48:04.602Z,30.34
2022-10-04T02:50:30.945Z,30.30
2022-10-04T02:52:57.340Z,30.30
2022-10-04T02:55:23.676Z,30.26
2022-10-04T02:57:50.017Z,30.29
2022-10-04T03:00:16.510Z,30.29
2022-10-04T03:02:42.915Z,30.87
2022-10-04T03:05:09.285Z,30.57
2022-10-04T03:07:35.781Z,30.39
2022-10-04T03:10:02.112Z,30.38
2022-10-04T03:12:28.482Z,30.35
2022-10-04T03:14:54.934Z,30.32
2022-10-04T03:17:21.258Z,30.35
2022-10-04T03:19:47.596Z,30.37
2022-10-04T03:22:14.010Z,30.31
2022-10-04T03:24:40.349Z,30.32
2022-10-04T03:27:06.687Z,30.30
2022-10-04T03:29:33.060Z,30.28
2022-10-04T03:31:59.396Z,30.58
2022-10-04T03:34:25.735Z,30.98
2022-10-04T03:36:52.209Z,30.42
2022-10-04T03:39:18.570Z,30.37
2022-10-04T03:41:44.902Z,30.34
2022-10-04T03:44:11.400Z,30.26
2022-10-04T03:46:37.807Z,30.21
2022-10-04T03:49:04.179Z,30.24
2022-10-04T03:51:30.526Z,30.27
2022-10-04T03:53:56.860Z,30.31
2022-10-04T03:56:23.198Z,30.29
2022-10-04T03:58:49.546Z,30.33
2022-10-04T04:01:16.013Z,30.26
2022-10-04T04:03:42.386Z,30.60
2022-10-04T04:06:08.771Z,30.60
2022-10-04T04:08:35.117Z,30.29
2022-10-04T04:11:01.465Z,30.25
2022-10-04T04:13:27.908Z,30.15
2022-10-04T04:15:54.304Z,30.11
2022-10-04T04:18:20.696Z,30.15
2022-10-04T04:20:47.180Z,30.12
2022-10-04T04:23:13.498Z,30.05
2022-10-04T04:25:39.832Z,30.06
2022-10-04T04:28:06.355Z,29.99
2022-10-04T04:30:32.744Z,30.04
2022-10-04T04:32:59.091Z,30.54
2022-10-04T04:35:25.479Z,30.33
2022-10-04T04:37:51.810Z,30.09
2022-10-04T04:40:18.148Z,30.05
2022-10-04T04:42:44.540Z,30.02
2022-10-04T04:45:10.901Z,29.99
2022-10-04T04:47:37.248Z,30.00
2022-10-04T04:50:03.695Z,29.99
2022-10-04T04:52:30.068Z,29.97
2022-10-04T04:54:56.405Z,29.95
2022-10-04T04:57:22.768Z,29.94
2022-10-04T04:59:49.202Z,30.19
2022-10-04T05:02:15.613Z,30.38
2022-10-04T05:04:42.221Z,30.06
2022-10-04T05:07:08.564Z,29.99
2022-10-04T05:09:34.940Z,29.95
2022-10-04T05:12:01.372Z,29.89
2022-10-04T05:14:27.742Z,29.89
2022-10-04T05:16:54.181Z,29.90
2022-10-04T05:19:20.608Z,29.87
2022-10-04T05:21:47.462Z,29.85
2022-10-04T05:24:14.058Z,29.88
2022-10-04T05:26:40.418Z,29.84
2022-10-04T05:29:06.766Z,30.44
2022-10-04T05:31:33.189Z,30.03
2022-10-04T05:33:59.725Z,29.87
2022-10-04T05:36:26.116Z,29.77
2022-10-04T05:38:52.452Z,29.76
2022-10-04T05:41:18.910Z,29.74
2022-10-04T05:43:45.390Z,29.76
2022-10-04T05:46:11.817Z,29.73
2022-10-04T05:48:38.329Z,29.76
2022-10-04T05:51:04.666Z,29.75
2022-10-04T05:53:31.002Z,29.74
2022-10-04T05:55:57.484Z,30.10
2022-10-04T05:58:23.836Z,30.02
2022-10-04T06:00:50.335Z,29.69
2022-10-04T06:03:16.912Z,29.53
2022-10-04T06:05:43.363Z,29.50
2022-10-04T06:08:09.800Z,29.43
2022-10-04T06:10:36.190Z,29.41
2022-10-04T06:13:02.559Z,29.37
2022-10-04T06:15:28.916Z,29.33
2022-10-04T06:17:55.318Z,29.29
2022-10-04T06:20:21.716Z,29.26
2022-10-04T06:22:48.071Z,29.76
2022-10-04T06:25:14.478Z,29.46
2022-10-04T06:27:40.819Z,29.26
2022-10-04T06:30:07.178Z,29.21
2022-10-04T06:32:33.572Z,29.14
2022-10-04T06:34:59.979Z,29.11
2022-10-04T06:37:26.345Z,29.09
2022-10-04T06:39:52.807Z,29.08
2022-10-04T06:42:19.150Z,29.07
2022-10-04T06:44:46.524Z,29.05
2022-10-04T06:47:13.094Z,29.36
2022-10-04T06:49:39.471Z,29.40
2022-10-04T06:52:05.890Z,29.10
2022-10-04T06:54:32.331Z,29.02
2022-10-04T06:56:58.764Z,28.99
2022-10-04T06:59:25.237Z,28.96
2022-10-04T07:01:52.998Z,28.96
2022-10-04T07:04:19.426Z,28.93
2022-10-04T07:06:45.764Z,28.92
2022-10-04T07:09:12.431Z,28.94
2022-10-04T07:11:38.838Z,29.35
2022-10-04T07:14:05.256Z,29.19
2022-10-04T07:16:31.733Z,28.97
2022-10-04T07:18:58.105Z,28.92
2022-10-04T07:21:24.455Z,28.86
2022-10-04T07:23:52.266Z,28.87
2022-10-04T07:26:18.667Z,28.86
2022-10-04T07:28:45.040Z,28.87
2022-10-04T07:31:11.458Z,28.87
2022-10-04T07:33:37.900Z,28.89
2022-10-04T07:36:04.242Z,29.49
2022-10-04T07:38:30.625Z,29.06
2022-10-04T07:40:56.962Z,28.94
2022-10-04T07:43:23.328Z,28.90
2022-10-04T07:45:49.811Z,28.88
2022-10-04T07:48:16.234Z,28.91
2022-10-04T07:50:42.725Z,28.91
2022-10-04T07:53:09.768Z,28.89
2022-10-04T07:55:36.245Z,28.91
2022-10-04T07:58:02.682Z,28.96
2022-10-04T08:00:29.132Z,29.54
2022-10-04T08:02:55.602Z,29.09
2022-10-04T08:05:22.019Z,28.99
2022-10-04T08:07:48.482Z,28.97
2022-10-04T08:10:14.862Z,29.00
2022-10-04T08:12:41.234Z,29.02
2022-10-04T08:15:07.717Z,29.06
2022-10-04T08:17:34.201Z,29.05
2022-10-04T08:20:00.553Z,29.07
2022-10-04T08:22:27.038Z,29.10
2022-10-04T08:24:53.789Z,29.60
2022-10-04T08:27:20.204Z,29.37
2022-10-04T08:29:47.320Z,29.22
2022-10-04T08:32:13.757Z,29.18
2022-10-04T08:34:40.228Z,29.14
2022-10-04T08:37:06.661Z,29.20
2022-10-04T08:39:35.326Z,29.23
2022-10-04T08:42:02.239Z,29.26
2022-10-04T08:44:28.664Z,29.28
2022-10-04T08:46:55.111Z,29.30
2022-10-04T08:49:21.542Z,29.55
2022-10-04T08:51:48.262Z,29.68
2022-10-04T08:54:14.694Z,29.40
2022-10-04T08:56:41.472Z,29.38
2022-10-04T08:59:08.246Z,29.36
2022-10-04T09:01:34.767Z,29.34
2022-10-04T09:04:01.159Z,29.33
2022-10-04T09:06:27.682Z,29.35
2022-10-04T09:08:54.052Z,29.34
2022-10-04T09:11:20.384Z,29.35
2022-10-04T09:13:46.778Z,29.44
2022-10-04T09:16:13.429Z,30.00
2022-10-04T09:18:39.972Z,29.46
2022-10-04T09:21:06.350Z,29.34
2022-10-04T09:23:32.766Z,29.33
2022-10-04T09:25:59.234Z,29.33
2022-10-04T09:28:25.772Z,29.32
2022-10-04T09:30:52.315Z,29.28
2022-10-04T09:33:18.662Z,29.34
2022-10-04T09:35:45.145Z,29.33
2022-10-04T09:38:11.524Z,29.34
2022-10-04T09:40:37.864Z,29.87
2022-10-04T09:43:04.300Z,29.56
2022-10-04T09:45:30.638Z,29.42
2022-10-04T09:47:56.992Z,29.38
2022-10-04T09:50:23.610Z,29.35
2022-10-04T09:52:49.974Z,29.36
2022-10-04T09:55:16.359Z,29.36
2022-10-04T09:57:43.139Z,29.35
2022-10-04T10:00:09.501Z,29.35
2022-10-04T10:02:35.955Z,29.36
2022-10-04T10:05:02.704Z,29.57
2022-10-04T10:07:29.062Z,29.69
2022-10-04T10:09:55.405Z,29.45
2022-10-04T10:12:21.935Z,29.38
2022-10-04T10:14:48.288Z,29.38
2022-10-04T10:17:14.818Z,29.35
2022-10-04T10:19:41.363Z,29.35
2022-10-04T10:22:07.762Z,29.36
2022-10-04T10:24:34.138Z,29.35
2022-10-04T10:27:00.732Z,29.37
2022-10-04T10:29:27.168Z,29.38
2022-10-04T10:31:53.552Z,29.85
2022-10-04T10:34:20.430Z,29.56
2022-10-04T10:36:47.408Z,29.40
2022-10-04T10:39:14.148Z,29.37
2022-10-04T10:41:40.522Z,29.36
2022-10-04T10:44:06.920Z,29.37
2022-10-04T10:46:33.343Z,29.36
2022-10-04T10:48:59.917Z,29.34
2022-10-04T10:51:26.288Z,29.35
2022-10-04T10:53:52.874Z,29.34
2022-10-04T10:56:19.249Z,29.52
2022-10-04T10:58:45.692Z,29.74
2022-10-04T11:01:12.045Z,29.44
2022-10-04T11:03:38.557Z,29.36
2022-10-04T11:06:05.029Z,29.35
2022-10-04T11:08:31.370Z,29.34
2022-10-04T11:10:57.799Z,29.33
2022-10-04T11:13:24.181Z,29.38
2022-10-04T11:15:50.657Z,29.35
2022-10-04T11:18:17.211Z,29.33
2022-10-04T11:20:43.678Z,29.35
2022-10-04T11:23:10.039Z,29.76
2022-10-04T11:25:36.625Z,29.57
2022-10-04T11:28:03.050Z,29.36
2022-10-04T11:30:29.419Z,29.35
2022-10-04T11:32:55.839Z,29.30
2022-10-04T11:35:22.193Z,29.32
2022-10-04T11:37:48.589Z,29.31
2022-10-04T11:40:15.036Z,29.32
2022-10-04T11:42:41.467Z,29.31
2022-10-04T11:45:07.838Z,29.34
2022-10-04T11:47:34.246Z,29.45
2022-10-04T11:50:00.604Z,29.94
2022-10-04T11:52:26.942Z,29.44
2022-10-04T11:54:53.303Z,29.38
2022-10-04T11:57:19.624Z,29.36
2022-10-04T11:59:46.013Z,29.32
2022-10-04T12:02:12.507Z,29.29
2022-10-04T12:04:38.942Z,29.31
2022-10-04T12:07:05.343Z,29.30
2022-10-04T12:09:31.882Z,29.29
2022-10-04T12:11:58.254Z,29.33
2022-10-04T12:14:24.897Z,29.63
2022-10-04T12:16:51.382Z,29.60
2022-10-04T12:19:18.044Z,29.38
2022-10-04T12:21:44.433Z,29.34
2022-10-04T12:24:10.849Z,29.28
2022-10-04T12:26:37.238Z,29.30
2022-10-04T12:29:03.675Z,29.30
2022-10-04T12:31:30.296Z,29.28
2022-10-04T12:33:56.781Z,29.30
2022-10-04T12:36:23.121Z,29.29
2022-10-04T12:38:49.546Z,29.34
2022-10-04T12:41:15.887Z,29.86
2022-10-04T12:43:42.248Z,29.46
2022-10-04T12:46:08.650Z,29.36
2022-10-04T12:48:35.326Z,29.30
2022-10-04T12:51:01.670Z,29.29
2022-10-04T12:53:28.159Z,29.29
2022-10-04T12:55:54.555Z,29.31
2022-10-04T12:58:20.919Z,29.30
2022-10-04T13:00:47.739Z,29.27
2022-10-04T13:03:14.153Z,29.32
2022-10-04T13:05:40.613Z,29.53
2022-10-04T13:08:07.218Z,29.65
2022-10-04T13:10:33.626Z,29.37
2022-10-04T13:13:05.071Z,29.33
2022-10-04T13:17:24.980Z,29.32
2022-10-04T13:18:18.106Z,29.27
2022-10-04T13:20:44.668Z,29.31
2022-10-04T13:23:11.070Z,29.29
2022-10-04T13:25:37.603Z,29.26
2022-10-04T13:28:04.193Z,29.28
2022-10-04T13:30:30.567Z,29.34
2022-10-04T13:32:56.979Z,29.90
2022-10-04T13:35:23.431Z,29.41
2022-10-04T13:37:49.802Z,29.32
2022-10-04T13:40:16.199Z,29.27
2022-10-04T13:42:42.714Z,29.26
2022-10-04T13:45:09.115Z,29.23
2022-10-04T13:47:35.663Z,29.26
2022-10-04T13:50:02.232Z,29.24
2022-10-04T13:52:28.640Z,29.26
2022-10-04T13:54:55.058Z,29.25
2022-10-04T13:57:21.617Z,29.51
2022-10-04T13:59:48.058Z,29.60
2022-10-04T14:02:14.413Z,29.34
2022-10-04T14:04:40.894Z,29.26
2022-10-04T14:07:07.560Z,29.24
2022-10-04T14:09:33.922Z,29.22
2022-10-04T14:12:04.017Z,29.26
2022-10-04T14:14:30.871Z,29.25
2022-10-04T14:16:57.431Z,29.23
2022-10-04T14:19:23.990Z,29.23
2022-10-04T14:21:50.357Z,29.25
2022-10-04T14:24:16.707Z,29.72
2022-10-04T14:26:43.658Z,29.45
2022-10-04T14:29:10.232Z,29.28
2022-10-04T14:31:37.366Z,29.23
2022-10-04T14:34:03.888Z,29.20
2022-10-04T14:36:30.330Z,29.20
2022-10-04T14:38:56.667Z,29.20
2022-10-04T14:41:23.190Z,29.20
2022-10-04T14:43:49.538Z,29.22
2022-10-04T14:46:15.933Z,29.22
2022-10-04T14:48:42.518Z,29.35
2022-10-04T14:51:09.034Z,29.74
2022-10-04T14:53:35.420Z,29.29
2022-10-04T14:56:01.805Z,29.20
2022-10-04T14:58:28.131Z,29.19
2022-10-04T15:00:54.641Z,29.16
2022-10-04T15:03:21.110Z,29.13
2022-10-04T15:05:47.466Z,29.15
2022-10-04T15:08:13.859Z,29.16
2022-10-04T15:10:40.243Z,29.15
2022-10-04T15:13:11.091Z,29.16
2022-10-04T15:15:38.140Z,29.60
2022-10-04T15:18:04.646Z,29.42
2022-10-04T15:20:31.006Z,29.17
2022-10-04T15:22:57.370Z,29.12
2022-10-04T15:25:23.736Z,29.10
2022-10-04T15:27:50.231Z,29.10
2022-10-04T15:30:16.617Z,29.09
2022-10-04T15:32:43.001Z,29.09
2022-10-04T15:35:09.513Z,29.09
2022-10-04T15:37:35.855Z,29.09
2022-10-04T15:40:02.228Z,29.19
2022-10-04T15:42:28.606Z,29.78
2022-10-04T15:44:55.072Z,29.23
2022-10-04T15:47:21.525Z,29.10
2022-10-04T15:49:48.004Z,29.07
2022-10-04T15:52:14.516Z,29.07
2022-10-04T15:54:41.097Z,29.08
2022-10-04T15:57:07.471Z,29.04
2022-10-04T15:59:33.833Z,29.04
2022-10-04T16:02:00.282Z,29.01
2022-10-04T16:04:26.659Z,29.03
2022-10-04T16:06:53.029Z,29.39
2022-10-04T16:09:19.525Z,29.35
2022-10-04T16:11:45.948Z,29.08
2022-10-04T16:14:12.376Z,29.05
2022-10-04T16:16:38.911Z,28.99
2022-10-04T16:19:05.275Z,29.00
2022-10-04T16:21:31.636Z,28.97
2022-10-04T16:23:58.033Z,28.96
2022-10-04T16:26:24.390Z,28.96
2022-10-04T16:28:50.777Z,29.08
2022-10-04T16:31:20.230Z,29.26
2022-10-04T16:33:46.981Z,29.90
2022-10-04T16:36:13.346Z,29.36
2022-10-04T16:38:39.785Z,29.28
2022-10-04T16:41:06.281Z,29.25
2022-10-04T16:43:32.644Z,29.26
2022-10-04T16:45:59.151Z,29.27
2022-10-04T16:48:25.666Z,29.27
2022-10-04T16:50:52.047Z,29.29
2022-10-04T16:53:18.487Z,29.31
2022-10-04T16:55:44.844Z,29.33
2022-10-04T16:58:11.335Z,29.57
2022-10-04T17:00:37.982Z,29.81
2022-10-04T17:03:04.475Z,29.49
2022-10-04T17:05:30.849Z,29.40
2022-10-04T17:07:57.319Z,29.37
2022-10-04T17:10:23.725Z,29.37
2022-10-04T17:12:50.170Z,29.39
2022-10-04T17:15:16.559Z,29.39
2022-10-04T17:17:42.890Z,29.39
2022-10-04T17:20:09.235Z,29.39
2022-10-04T17:22:35.741Z,29.43
2022-10-04T17:25:02.134Z,29.74
2022-10-04T17:27:28.471Z,29.77
2022-10-04T17:29:54.830Z,29.51
2022-10-04T17:32:21.205Z,29.45
2022-10-04T17:34:47.550Z,29.43
2022-10-04T17:37:13.935Z,29.41
2022-10-04T17:39:40.303Z,29.44
2022-10-04T17:42:06.651Z,29.44
2022-10-04T17:44:33.033Z,29.43
2022-10-04T17:46:59.400Z,29.43
2022-10-04T17:49:25.769Z,29.43
2022-10-04T17:51:52.175Z,29.86
2022-10-04T17:54:18.529Z,29.74
2022-10-04T17:56:45.140Z,29.50
2022-10-04T17:59:11.720Z,29.51
2022-10-04T18:01:38.165Z,29.51
2022-10-04T18:04:04.549Z,29.54
2022-10-04T18:06:30.970Z,29.58
2022-10-04T18:08:57.328Z,29.62
2022-10-04T18:11:23.683Z,29.66
2022-10-04T18:13:50.142Z,29.65
2022-10-04T18:16:16.571Z,29.71
2022-10-04T18:18:42.997Z,30.14
2022-10-04T18:21:09.375Z,30.05
2022-10-04T18:23:35.751Z,29.84
2022-10-04T18:26:02.114Z,29.79
2022-10-04T18:28:28.563Z,29.77
2022-10-04T18:30:54.981Z,29.76
2022-10-04T18:33:25.834Z,29.80
2022-10-04T18:35:53.011Z,29.81
2022-10-04T18:38:19.393Z,29.82
2022-10-04T18:40:45.760Z,29.85
2022-10-04T18:43:12.241Z,29.84
2022-10-04T18:45:38.631Z,30.02
2022-10-04T18:48:04.981Z,30.60
2022-10-04T18:50:31.390Z,30.03
2022-10-04T18:52:57.804Z,29.97
2022-10-04T18:55:24.201Z,29.92
2022-10-04T18:57:50.572Z,29.92
2022-10-04T19:00:17.053Z,29.89
2022-10-04T19:02:43.445Z,29.94
2022-10-04T19:05:09.870Z,29.92
2022-10-04T19:07:36.217Z,29.92
2022-10-04T19:10:02.565Z,29.96
2022-10-04T19:12:29.054Z,29.94
2022-10-04T19:14:55.408Z,30.37
2022-10-04T19:17:21.744Z,30.36
2022-10-04T19:19:48.204Z,30.09
2022-10-04T19:22:14.542Z,30.06
2022-10-04T19:24:40.885Z,30.02
2022-10-04T19:27:07.353Z,30.03
2022-10-04T19:29:33.694Z,30.05
2022-10-04T19:32:00.036Z,30.04
2022-10-04T19:34:26.684Z,30.04
2022-10-04T19:36:53.037Z,30.03
2022-10-04T19:39:19.412Z,30.05
2022-10-04T19:41:45.778Z,30.17
2022-10-04T19:44:12.141Z,30.83
2022-10-04T19:46:38.499Z,30.29
2022-10-04T19:49:04.874Z,30.20
2022-10-04T19:51:31.240Z,30.11
2022-10-04T19:53:57.581Z,30.09
2022-10-04T19:56:24.060Z,30.11
2022-10-04T19:58:50.392Z,30.15
2022-10-04T20:01:16.808Z,30.13
2022-10-04T20:03:43.361Z,30.16
2022-10-04T20:06:09.699Z,30.15
2022-10-04T20:08:36.068Z,30.17
2022-10-04T20:11:02.461Z,30.46
2022-10-04T20:13:28.799Z,30.63
2022-10-04T20:15:55.194Z,30.29
2022-10-04T20:18:21.721Z,30.26
2022-10-04T20:20:48.066Z,30.23
2022-10-04T20:23:14.416Z,30.18
2022-10-04T20:25:40.815Z,30.18
2022-10-04T20:28:07.224Z,30.18
2022-10-04T20:30:33.649Z,30.20
2022-10-04T20:33:00.043Z,30.21
2022-10-04T20:35:26.387Z,30.22
2022-10-04T20:38:07.607Z,30.24
2022-10-04T20:40:39.117Z,30.80
2022-10-04T20:43:08.226Z,30.56
2022-10-04T20:45:37.158Z,30.33
2022-10-04T20:48:03.592Z,30.30
2022-10-04T20:50:29.939Z,30.27
2022-10-04T20:52:56.311Z,30.25
2022-10-04T20:55:22.795Z,30.25
2022-10-04T20:57:49.171Z,30.26
2022-10-04T21:00:15.531Z,30.26
2022-10-04T21:02:42.073Z,30.24
2022-10-04T21:05:08.438Z,30.24
2022-10-04T21:07:34.792Z,30.30
2022-10-04T21:10:01.167Z,30.98
2022-10-04T21:12:27.506Z,30.46
2022-10-04T21:14:53.854Z,30.34
2022-10-04T21:17:20.236Z,30.32
2022-10-04T21:19:46.607Z,30.27
2022-10-04T21:22:12.939Z,30.25
2022-10-04T21:24:39.417Z,30.27
2022-10-04T21:27:05.782Z,30.29
2022-10-04T21:29:32.205Z,30.26
2022-10-04T21:31:58.793Z,30.27
2022-10-04T21:34:48.577Z,30.27
2022-10-04T21:37:11.541Z,30.52
2022-10-04T21:39:37.878Z,30.83
2022-10-04T21:42:04.222Z,30.44
2022-10-04T21:44:30.753Z,30.37
2022-10-04T21:46:57.096Z,30.33
2022-10-04T21:49:23.457Z,30.28
2022-10-04T21:51:49.936Z,30.32
2022-10-04T21:54:16.312Z,30.30
2022-10-04T21:56:42.840Z,30.30
2022-10-04T21:59:09.376Z,30.28
2022-10-04T22:01:35.827Z,30.28
2022-10-04T22:04:02.227Z,30.29
2022-10-04T22:06:28.610Z,30.59
2022-10-04T22:08:54.998Z,30.79
2022-10-04T22:11:21.365Z,30.45
2022-10-04T22:13:47.905Z,30.37
2022-10-04T22:16:14.429Z,30.33
2022-10-04T22:18:40.829Z,30.32
2022-10-04T22:21:07.187Z,30.31
2022-10-04T22:23:33.546Z,30.33
2022-10-04T22:25:59.981Z,30.30
2022-10-04T22:28:26.382Z,30.32
2022-10-04T22:30:52.815Z,30.31
2022-10-04T22:33:19.165Z,30.33
2022-10-04T22:35:45.558Z,30.81
2022-10-04T22:38:11.905Z,30.64
2022-10-04T22:40:38.252Z,30.45
2022-10-04T22:43:04.806Z,30.39
2022-10-04T22:45:31.208Z,30.38
2022-10-04T22:47:57.600Z,30.34
2022-10-04T22:50:23.996Z,30.37
2022-10-04T22:52:50.386Z,30.37
2022-10-04T22:55:16.734Z,30.33
2022-10-04T22:57:43.183Z,30.37
2022-10-04T23:00:09.536Z,30.36
2022-10-04T23:02:35.890Z,30.36
2022-10-04T23:05:02.325Z,30.95
2022-10-04T23:07:28.703Z,30.67
2022-10-04T23:09:55.041Z,30.45
2022-10-04T23:12:21.493Z,30.40
2022-10-04T23:14:47.891Z,30.36
2022-10-04T23:17:14.273Z,30.35
2022-10-04T23:19:40.754Z,30.38
2022-10-04T23:22:07.133Z,30.37
2022-10-04T23:24:33.521Z,30.35
2022-10-04T23:26:59.940Z,30.35
2022-10-04T23:29:26.281Z,30.38
2022-10-04T23:31:52.797Z,30.41
2022-10-04T23:34:19.279Z,31.08
2022-10-04T23:36:45.802Z,30.57
2022-10-04T23:39:12.333Z,30.44
2022-10-04T23:41:38.708Z,30.41
2022-10-04T23:44:05.062Z,30.35
2022-10-04T23:46:31.404Z,30.36
2022-10-04T23:48:57.795Z,30.33
2022-10-04T23:51:24.140Z,30.36
2022-10-04T23:53:50.513Z,30.34
2022-10-04T23:56:16.905Z,30.36
2022-10-04T23:58:43.257Z,30.35
